createdAt,value
2022-09-18T00:04:13.671Z,41.66
2022-09-18T00:09:20.978Z,39.36
2022-09-18T00:14:28.009Z,41.44
2022-09-18T00:19:35.288Z,39.99
2022-09-18T00:24:43.465Z,39.70
2022-09-18T00:29:50.606Z,39.17
2022-09-18T00:34:57.859Z,39.12
2022-09-18T00:40:05.287Z,39.39
2022-09-18T00:45:12.326Z,39.73
2022-09-18T00:50:19.546Z,40.19
2022-09-18T00:55:26.883Z,40.27
2022-09-18T01:00:33.986Z,40.31
2022-09-18T01:05:41.246Z,40.32
2022-09-18T01:10:48.559Z,40.47
2022-09-18T01:15:56.790Z,40.53
2022-09-18T01:21:03.983Z,40.66
2022-09-18T01:26:11.302Z,40.83
2022-09-18T01:31:18.486Z,40.89
2022-09-18T01:36:25.692Z,41.05
2022-09-18T01:41:33.031Z,41.12
2022-09-18T01:46:40.274Z,41.24
2022-09-18T01:51:47.367Z,41.44
2022-09-18T01:56:54.743Z,41.50
2022-09-18T02:02:01.961Z,41.59
2022-09-18T02:07:09.056Z,41.54
2022-09-18T02:12:16.410Z,41.48
2022-09-18T02:17:24.487Z,41.41
2022-09-18T02:22:31.663Z,41.46
2022-09-18T02:27:39.225Z,41.55
2022-09-18T02:32:46.281Z,41.60
2022-09-18T02:37:53.480Z,41.55
2022-09-18T02:43:00.808Z,41.53
2022-09-18T02:48:07.945Z,41.66
2022-09-18T02:53:15.206Z,41.67
2022-09-18T02:58:22.539Z,41.76
2022-09-18T03:03:29.608Z,41.71
2022-09-18T03:08:36.787Z,41.78
2022-09-18T03:13:44.141Z,41.73
2022-09-18T03:18:51.316Z,41.71
2022-09-18T03:23:58.468Z,41.67
2022-09-18T03:29:05.895Z,41.67
2022-09-18T03:34:12.998Z,41.69
2022-09-18T03:39:20.266Z,41.70
2022-09-18T03:44:27.633Z,41.73
2022-09-18T03:49:34.762Z,41.62
2022-09-18T03:54:42.025Z,41.63
2022-09-18T03:59:49.385Z,41.66
2022-09-18T04:04:56.465Z,41.66
2022-09-18T04:10:03.676Z,41.76
2022-09-18T04:15:11.004Z,41.92
2022-09-18T04:20:18.092Z,41.77
2022-09-18T04:25:25.295Z,41.81
2022-09-18T04:30:32.633Z,41.72
2022-09-18T04:35:39.720Z,41.70
2022-09-18T04:40:46.898Z,41.78
2022-09-18T04:45:54.232Z,41.66
2022-09-18T04:51:01.325Z,41.70
2022-09-18T04:56:08.594Z,41.73
2022-09-18T05:01:16.045Z,41.74
2022-09-18T05:06:23.019Z,41.73
2022-09-18T05:11:30.238Z,41.72
2022-09-18T05:16:37.595Z,41.71
2022-09-18T05:21:44.733Z,41.75
2022-09-18T05:26:51.969Z,41.75
2022-09-18T05:31:59.317Z,41.66
2022-09-18T05:37:06.473Z,41.67
2022-09-18T05:42:13.678Z,41.70
2022-09-18T05:47:21.025Z,41.67
2022-09-18T05:52:28.130Z,41.57
2022-09-18T05:57:35.415Z,41.60
2022-09-18T06:02:42.755Z,41.58
2022-09-18T06:07:49.817Z,41.60
2022-09-18T06:12:56.975Z,41.57
2022-09-18T06:18:04.336Z,41.64
2022-09-18T06:23:11.423Z,41.63
2022-09-18T06:28:18.617Z,41.61
2022-09-18T06:33:25.944Z,41.64
2022-09-18T06:38:33.034Z,41.65
2022-09-18T06:43:40.254Z,41.57
2022-09-18T06:48:47.523Z,41.62
2022-09-18T06:53:54.692Z,41.67
2022-09-18T06:59:01.923Z,41.63
2022-09-18T07:04:09.270Z,41.73
2022-09-18T07:09:16.335Z,41.93
2022-09-18T07:14:23.576Z,41.86
2022-09-18T07:19:30.906Z,42.13
2022-09-18T07:24:38.025Z,42.06
2022-09-18T07:29:45.278Z,42.21
2022-09-18T07:34:52.615Z,42.18
2022-09-18T07:39:59.692Z,42.42
2022-09-18T07:45:06.864Z,42.66
2022-09-18T07:50:14.187Z,42.27
2022-09-18T07:55:21.271Z,42.44
2022-09-18T08:00:28.529Z,42.40
2022-09-18T08:05:35.887Z,42.40
2022-09-18T08:10:43.147Z,42.37
2022-09-18T08:15:50.377Z,42.26
2022-09-18T08:20:57.618Z,42.22
2022-09-18T08:26:04.788Z,42.24
2022-09-18T08:31:12.090Z,42.18
2022-09-18T08:36:19.573Z,42.29
2022-09-18T08:41:27.190Z,42.16
2022-09-18T08:46:34.959Z,42.21
2022-09-18T08:51:42.773Z,42.38
2022-09-18T08:56:50.324Z,43.36
2022-09-18T09:01:57.941Z,43.82
2022-09-18T09:07:05.193Z,44.06
2022-09-18T09:12:12.264Z,44.19
2022-09-18T09:17:19.550Z,43.78
2022-09-18T09:22:26.910Z,43.66
2022-09-18T09:27:34.019Z,43.02
2022-09-18T09:32:41.262Z,42.75
2022-09-18T09:37:48.555Z,42.51
2022-09-18T09:42:55.595Z,43.06
2022-09-18T09:48:02.782Z,42.33
2022-09-18T09:53:10.118Z,43.01
2022-09-18T09:58:17.198Z,42.55
2022-09-18T10:03:24.438Z,42.24
2022-09-18T10:08:31.728Z,42.11
2022-09-18T10:13:38.831Z,41.37
2022-09-18T10:18:46.002Z,41.10
2022-09-18T10:23:53.387Z,41.34
2022-09-18T10:29:00.421Z,41.48
2022-09-18T10:34:07.624Z,40.18
2022-09-18T10:39:15.008Z,40.31
2022-09-18T10:44:22.146Z,40.68
2022-09-18T10:49:29.639Z,41.06
2022-09-18T10:54:37.101Z,41.20
2022-09-18T10:59:44.173Z,41.34
2022-09-18T11:04:51.367Z,41.25
2022-09-18T11:09:58.692Z,41.41
2022-09-18T11:15:05.779Z,41.50
2022-09-18T11:20:12.985Z,41.53
2022-09-18T11:25:20.356Z,41.65
2022-09-18T11:30:27.509Z,41.71
2022-09-18T11:35:34.770Z,41.94
2022-09-18T11:40:42.227Z,42.00
2022-09-18T11:45:49.251Z,42.11
2022-09-18T11:50:56.502Z,42.28
2022-09-18T11:56:03.928Z,42.47
2022-09-18T12:01:11.102Z,42.33
2022-09-18T12:06:18.278Z,42.47
2022-09-18T12:11:24.270Z,42.60
2022-09-18T12:16:32.487Z,42.65
2022-09-18T12:21:39.634Z,42.81
2022-09-18T12:26:46.994Z,42.79
2022-09-18T12:31:54.373Z,42.86
2022-09-18T12:37:01.519Z,42.95
2022-09-18T12:42:09.498Z,43.01
2022-09-18T12:47:16.602Z,43.02
2022-09-18T12:52:27.096Z,42.86
2022-09-18T12:57:31.083Z,42.85
2022-09-18T13:02:38.214Z,42.85
2022-09-18T13:07:45.448Z,43.15
2022-09-18T13:12:52.771Z,43.31
2022-09-18T13:18:00.612Z,43.45
2022-09-18T13:23:07.820Z,43.57
2022-09-18T13:28:15.204Z,43.65
2022-09-18T13:33:22.226Z,43.91
2022-09-18T13:38:29.425Z,43.77
2022-09-18T13:43:36.728Z,43.76
2022-09-18T13:48:43.769Z,43.72
2022-09-18T13:53:51.001Z,43.56
2022-09-18T13:58:58.309Z,43.22
2022-09-18T14:04:05.442Z,43.31
2022-09-18T14:09:12.652Z,43.18
2022-09-18T14:14:19.971Z,43.30
2022-09-18T14:19:27.027Z,43.37
2022-09-18T14:24:36.196Z,43.11
2022-09-18T14:29:41.599Z,42.94
2022-09-18T14:34:48.705Z,42.79
2022-09-18T14:39:55.987Z,42.74
2022-09-18T14:45:03.207Z,43.05
2022-09-18T14:50:10.327Z,43.18
2022-09-18T14:55:17.551Z,42.91
2022-09-18T15:00:25.097Z,43.17
2022-09-18T15:05:32.012Z,43.24
2022-09-18T15:10:39.227Z,43.27
2022-09-18T15:15:46.544Z,42.77
2022-09-18T15:20:53.683Z,44.40
2022-09-18T15:26:01.004Z,43.02
2022-09-18T15:31:08.490Z,44.71
2022-09-18T15:36:15.483Z,44.69
2022-09-18T15:41:22.718Z,44.47
2022-09-18T15:46:30.083Z,42.02
2022-09-18T15:51:39.254Z,41.23
2022-09-18T15:56:46.546Z,40.03
2022-09-18T16:01:53.972Z,41.75
2022-09-18T16:07:00.973Z,41.85
2022-09-18T16:12:08.252Z,42.84
2022-09-18T16:17:15.579Z,42.77
2022-09-18T16:22:22.596Z,44.64
2022-09-18T16:27:29.776Z,42.81
2022-09-18T16:32:37.059Z,43.48
2022-09-18T16:37:44.165Z,43.88
2022-09-18T16:42:51.370Z,44.44
2022-09-18T16:48:00.647Z,44.72
2022-09-18T16:53:05.750Z,44.44
2022-09-18T16:58:12.990Z,44.14
2022-09-18T17:03:20.331Z,43.68
2022-09-18T17:08:27.611Z,41.03
2022-09-18T17:13:35.023Z,41.40
2022-09-18T17:18:42.638Z,40.16
2022-09-18T17:23:50.029Z,42.18
2022-09-18T17:28:57.580Z,41.95
2022-09-18T17:34:05.782Z,43.50
2022-09-18T17:39:13.075Z,42.97
2022-09-18T17:44:20.692Z,42.56
2022-09-18T17:49:28.423Z,43.08
2022-09-18T17:54:36.021Z,43.24
2022-09-18T17:59:43.646Z,43.51
2022-09-18T18:04:51.373Z,43.94
2022-09-18T18:09:58.607Z,43.95
2022-09-18T18:15:05.933Z,43.79
2022-09-18T18:20:13.286Z,43.88
2022-09-18T18:25:20.788Z,44.04
2022-09-18T18:30:28.143Z,43.89
2022-09-18T18:35:35.938Z,43.52
2022-09-18T18:40:45.269Z,43.92
2022-09-18T18:45:53.087Z,44.03
2022-09-18T18:51:04.743Z,43.97
2022-09-18T18:56:12.102Z,43.56
2022-09-18T19:01:19.874Z,42.45
2022-09-18T19:06:27.155Z,41.41
2022-09-18T19:11:34.543Z,40.41
2022-09-18T19:16:42.150Z,41.03
2022-09-18T19:21:49.893Z,41.38
2022-09-18T19:26:57.482Z,40.83
2022-09-18T19:32:05.100Z,40.27
2022-09-18T19:37:14.891Z,40.02
2022-09-18T19:42:19.565Z,39.72
2022-09-18T19:47:27.024Z,39.89
2022-09-18T19:52:34.389Z,38.96
2022-09-18T19:57:41.841Z,39.32
2022-09-18T20:02:49.148Z,39.02
2022-09-18T20:07:56.675Z,39.07
2022-09-18T20:13:03.910Z,38.46
2022-09-18T20:18:11.188Z,39.33
2022-09-18T20:23:18.535Z,38.91
2022-09-18T20:28:25.599Z,38.67
2022-09-18T20:33:32.796Z,39.03
2022-09-18T20:38:40.145Z,38.36
2022-09-18T20:43:47.279Z,38.08
2022-09-18T20:48:54.485Z,37.72
2022-09-18T20:54:01.809Z,36.85
2022-09-18T20:59:08.877Z,37.77
2022-09-18T21:04:16.163Z,38.08
2022-09-18T21:09:23.529Z,38.16
2022-09-18T21:14:30.664Z,37.48
2022-09-18T21:19:37.920Z,38.40
2022-09-18T21:24:45.269Z,38.39
2022-09-18T21:29:52.389Z,39.09
2022-09-18T21:34:59.630Z,39.05
2022-09-18T21:40:07.060Z,38.98
2022-09-18T21:45:14.118Z,38.78
2022-09-18T21:50:21.334Z,38.19
2022-09-18T21:55:28.754Z,38.54
2022-09-18T22:00:35.837Z,38.42
2022-09-18T22:05:42.955Z,38.70
2022-09-18T22:10:50.313Z,38.44
2022-09-18T22:15:57.474Z,38.55
2022-09-18T22:21:04.631Z,37.27
2022-09-18T22:26:11.986Z,37.06
2022-09-18T22:31:19.192Z,36.20
2022-09-18T22:36:26.252Z,36.64
2022-09-18T22:41:33.545Z,35.20
2022-09-18T22:46:40.766Z,35.90
2022-09-18T22:51:47.797Z,36.77
2022-09-18T22:56:55.259Z,36.39
2022-09-18T23:02:02.528Z,36.00
2022-09-18T23:07:09.616Z,36.28
2022-09-18T23:12:16.973Z,36.77
2022-09-18T23:17:24.034Z,37.03
2022-09-18T23:22:31.190Z,37.16
2022-09-18T23:27:38.510Z,37.28
2022-09-18T23:32:45.582Z,37.51
2022-09-18T23:37:52.780Z,37.70
2022-09-18T23:43:00.118Z,37.87
2022-09-18T23:48:07.393Z,37.99
2022-09-18T23:53:14.558Z,38.00
2022-09-18T23:58:21.938Z,37.36
